sensor_id;sensor_type;location;lat;lon;timestamp;pressure;altitude;pressure_sealevel;temperature;humidity
69153;BME280;56261;51.580;4.578;2023-05-03T00:02:04;103040.00;;;6.02;100.00
69153;BME280;56261;51.580;4.578;2023-05-03T00:04:30;103042.72;;;6.00;100.00
69153;BME280;56261;51.580;4.578;2023-05-03T00:06:56;103043.31;;;5.90;100.00
69153;BME280;56261;51.580;4.578;2023-05-03T00:09:22;103050.94;;;5.96;100.00
69153;BME280;56261;51.580;4.578;2023-05-03T00:11:47;103046.97;;;5.87;100.00
69153;BME280;56261;51.580;4.578;2023-05-03T00:14:13;103045.69;;;5.78;100.00
69153;BME280;56261;51.580;4.578;2023-05-03T00:16:38;103040.81;;;5.87;100.00
69153;BME280;56261;51.580;4.578;2023-05-03T00:19:03;103043.97;;;5.77;100.00
69153;BME280;56261;51.580;4.578;2023-05-03T00:21:29;103022.13;;;5.74;100.00
69153;BME280;56261;51.580;4.578;2023-05-03T00:23:55;103036.38;;;5.87;100.00
69153;BME280;56261;51.580;4.578;2023-05-03T00:26:21;103035.19;;;5.77;100.00
69153;BME280;56261;51.580;4.578;2023-05-03T00:28:46;103030.59;;;5.80;100.00
69153;BME280;56261;51.580;4.578;2023-05-03T00:31:12;103018.00;;;5.84;100.00
69153;BME280;56261;51.580;4.578;2023-05-03T00:33:38;103020.00;;;5.80;100.00
69153;BME280;56261;51.580;4.578;2023-05-03T00:36:11;103025.63;;;5.74;100.00
69153;BME280;56261;51.580;4.578;2023-05-03T00:38:38;103031.25;;;5.68;100.00
69153;BME280;56261;51.580;4.578;2023-05-03T00:41:04;103017.41;;;5.63;100.00
69153;BME280;56261;51.580;4.578;2023-05-03T00:43:30;103020.06;;;5.63;100.00
69153;BME280;56261;51.580;4.578;2023-05-03T00:45:59;103024.41;;;5.64;100.00
69153;BME280;56261;51.580;4.578;2023-05-03T00:48:28;103024.41;;;5.64;100.00
69153;BME280;56261;51.580;4.578;2023-05-03T00:50:56;103015.78;;;5.60;100.00
69153;BME280;56261;51.580;4.578;2023-05-03T00:53:22;103022.00;;;5.59;100.00
69153;BME280;56261;51.580;4.578;2023-05-03T00:55:50;103025.75;;;5.55;100.00
69153;BME280;56261;51.580;4.578;2023-05-03T00:58:16;103024.72;;;5.58;100.00
69153;BME280;56261;51.580;4.578;2023-05-03T01:00:42;103020.38;;;5.57;100.00
69153;BME280;56261;51.580;4.578;2023-05-03T01:03:07;103022.31;;;5.53;100.00
69153;BME280;56261;51.580;4.578;2023-05-03T01:06:01;103029.06;;;5.43;100.00
69153;BME280;56261;51.580;4.578;2023-05-03T01:08:36;103019.09;;;5.48;100.00
69153;BME280;56261;51.580;4.578;2023-05-03T01:11:48;103019.94;;;5.49;100.00
69153;BME280;56261;51.580;4.578;2023-05-03T01:17:27;103018.63;;;5.40;100.00
69153;BME280;56261;51.580;4.578;2023-05-03T01:19:56;103027.69;;;5.36;100.00
69153;BME280;56261;51.580;4.578;2023-05-03T01:22:37;103021.78;;;5.47;100.00
69153;BME280;56261;51.580;4.578;2023-05-03T01:25:11;103019.00;;;5.50;100.00
69153;BME280;56261;51.580;4.578;2023-05-03T01:27:38;103017.84;;;5.38;100.00
69153;BME280;56261;51.580;4.578;2023-05-03T01:30:05;103021.63;;;5.34;100.00
69153;BME280;56261;51.580;4.578;2023-05-03T01:35:06;103024.09;;;5.37;100.00
69153;BME280;56261;51.580;4.578;2023-05-03T01:37:32;103018.88;;;5.35;100.00
69153;BME280;56261;51.580;4.578;2023-05-03T01:40:02;103015.69;;;5.29;100.00
69153;BME280;56261;51.580;4.578;2023-05-03T01:42:30;103017.09;;;5.36;100.00
69153;BME280;56261;51.580;4.578;2023-05-03T01:44:57;103016.81;;;5.25;100.00
69153;BME280;56261;51.580;4.578;2023-05-03T01:47:23;103020.38;;;5.24;100.00
69153;BME280;56261;51.580;4.578;2023-05-03T01:49:49;103016.72;;;5.26;100.00
69153;BME280;56261;51.580;4.578;2023-05-03T01:52:14;103009.28;;;5.17;100.00
69153;BME280;56261;51.580;4.578;2023-05-03T01:54:40;103005.59;;;5.19;100.00
69153;BME280;56261;51.580;4.578;2023-05-03T01:57:09;103003.97;;;5.17;100.00
69153;BME280;56261;51.580;4.578;2023-05-03T01:59:34;102994.53;;;5.29;100.00
69153;BME280;56261;51.580;4.578;2023-05-03T02:02:00;102990.81;;;5.15;100.00
69153;BME280;56261;51.580;4.578;2023-05-03T02:04:26;102983.34;;;5.24;100.00
69153;BME280;56261;51.580;4.578;2023-05-03T02:06:51;102980.41;;;5.12;100.00
69153;BME280;56261;51.580;4.578;2023-05-03T02:09:17;102969.13;;;5.09;100.00
69153;BME280;56261;51.580;4.578;2023-05-03T02:11:42;102954.16;;;5.09;100.00
69153;BME280;56261;51.580;4.578;2023-05-03T02:14:08;102952.91;;;4.99;100.00
69153;BME280;56261;51.580;4.578;2023-05-03T02:16:33;102946.09;;;5.11;100.00
69153;BME280;56261;51.580;4.578;2023-05-03T02:18:58;102949.09;;;5.05;100.00
69153;BME280;56261;51.580;4.578;2023-05-03T02:21:25;102937.66;;;5.04;100.00
69153;BME280;56261;51.580;4.578;2023-05-03T02:23:51;102952.84;;;5.01;100.00
69153;BME280;56261;51.580;4.578;2023-05-03T02:26:19;102950.34;;;4.97;100.00
69153;BME280;56261;51.580;4.578;2023-05-03T02:28:44;102943.19;;;4.99;100.00
69153;BME280;56261;51.580;4.578;2023-05-03T02:31:10;102968.56;;;4.86;100.00
69153;BME280;56261;51.580;4.578;2023-05-03T02:33:37;102970.19;;;4.89;100.00
69153;BME280;56261;51.580;4.578;2023-05-03T02:36:03;102962.34;;;4.87;100.00
69153;BME280;56261;51.580;4.578;2023-05-03T02:38:28;102973.16;;;4.83;100.00
69153;BME280;56261;51.580;4.578;2023-05-03T02:40:53;102968.72;;;4.83;100.00
69153;BME280;56261;51.580;4.578;2023-05-03T02:43:19;102975.16;;;4.77;100.00
69153;BME280;56261;51.580;4.578;2023-05-03T02:45:44;102975.81;;;4.83;100.00
69153;BME280;56261;51.580;4.578;2023-05-03T02:48:10;102984.66;;;4.82;100.00
69153;BME280;56261;51.580;4.578;2023-05-03T02:50:35;102991.56;;;4.84;100.00
69153;BME280;56261;51.580;4.578;2023-05-03T02:53:00;102991.81;;;4.79;100.00
69153;BME280;56261;51.580;4.578;2023-05-03T02:55:26;102974.50;;;4.74;100.00
69153;BME280;56261;51.580;4.578;2023-05-03T02:57:52;102964.75;;;4.74;100.00
69153;BME280;56261;51.580;4.578;2023-05-03T03:00:17;102974.84;;;4.84;100.00
69153;BME280;56261;51.580;4.578;2023-05-03T03:02:43;102981.22;;;4.79;100.00
69153;BME280;56261;51.580;4.578;2023-05-03T03:05:08;102963.06;;;4.56;100.00
69153;BME280;56261;51.580;4.578;2023-05-03T03:07:36;102980.31;;;4.63;100.00
69153;BME280;56261;51.580;4.578;2023-05-03T03:10:01;102965.91;;;4.69;100.00
69153;BME280;56261;51.580;4.578;2023-05-03T03:12:28;102965.25;;;4.65;100.00
69153;BME280;56261;51.580;4.578;2023-05-03T03:14:53;102970.75;;;4.61;100.00
69153;BME280;56261;51.580;4.578;2023-05-03T03:17:22;102986.91;;;4.54;100.00
69153;BME280;56261;51.580;4.578;2023-05-03T03:19:47;102990.28;;;4.58;100.00
69153;BME280;56261;51.580;4.578;2023-05-03T03:22:12;102975.34;;;4.57;100.00
69153;BME280;56261;51.580;4.578;2023-05-03T03:24:38;102993.16;;;4.53;100.00
69153;BME280;56261;51.580;4.578;2023-05-03T03:27:03;102991.91;;;4.61;100.00
69153;BME280;56261;51.580;4.578;2023-05-03T03:29:30;102991.66;;;4.48;100.00
69153;BME280;56261;51.580;4.578;2023-05-03T03:31:56;103004.34;;;4.58;100.00
69153;BME280;56261;51.580;4.578;2023-05-03T03:34:22;103011.94;;;4.47;100.00
69153;BME280;56261;51.580;4.578;2023-05-03T03:36:47;103010.00;;;4.51;100.00
69153;BME280;56261;51.580;4.578;2023-05-03T03:39:12;103008.34;;;4.48;100.00
69153;BME280;56261;51.580;4.578;2023-05-03T03:41:38;103006.59;;;4.49;100.00
69153;BME280;56261;51.580;4.578;2023-05-03T03:44:03;102986.00;;;4.38;100.00
69153;BME280;56261;51.580;4.578;2023-05-03T03:46:29;103004.09;;;4.46;100.00
69153;BME280;56261;51.580;4.578;2023-05-03T03:48:54;102996.94;;;4.48;100.00
69153;BME280;56261;51.580;4.578;2023-05-03T03:51:20;103009.38;;;4.46;100.00
69153;BME280;56261;51.580;4.578;2023-05-03T03:53:45;103006.44;;;4.52;100.00
69153;BME280;56261;51.580;4.578;2023-05-03T03:56:10;103009.59;;;4.41;100.00
69153;BME280;56261;51.580;4.578;2023-05-03T03:58:36;103008.59;;;4.44;100.00
69153;BME280;56261;51.580;4.578;2023-05-03T04:01:01;103005.81;;;4.47;100.00
69153;BME280;56261;51.580;4.578;2023-05-03T04:03:27;103008.13;;;4.53;100.00
69153;BME280;56261;51.580;4.578;2023-05-03T04:05:52;103018.00;;;4.49;100.00
69153;BME280;56261;51.580;4.578;2023-05-03T04:08:17;103016.63;;;4.42;100.00
69153;BME280;56261;51.580;4.578;2023-05-03T04:10:43;103023.53;;;4.45;100.00
69153;BME280;56261;51.580;4.578;2023-05-03T04:13:09;103031.84;;;4.54;100.00
69153;BME280;56261;51.580;4.578;2023-05-03T04:15:34;103036.97;;;4.57;100.00
69153;BME280;56261;51.580;4.578;2023-05-03T04:18:00;103025.78;;;4.52;100.00
69153;BME280;56261;51.580;4.578;2023-05-03T04:20:25;103038.47;;;4.63;100.00
69153;BME280;56261;51.580;4.578;2023-05-03T04:22:51;103042.25;;;4.57;100.00
69153;BME280;56261;51.580;4.578;2023-05-03T04:25:16;103036.97;;;4.57;100.00
69153;BME280;56261;51.580;4.578;2023-05-03T04:27:43;103033.34;;;4.60;100.00
69153;BME280;56261;51.580;4.578;2023-05-03T04:30:09;103034.13;;;4.62;100.00
69153;BME280;56261;51.580;4.578;2023-05-03T04:32:36;103020.75;;;4.65;100.00
69153;BME280;56261;51.580;4.578;2023-05-03T04:35:10;103030.53;;;4.63;100.00
69153;BME280;56261;51.580;4.578;2023-05-03T04:37:37;103026.09;;;4.64;100.00
69153;BME280;56261;51.580;4.578;2023-05-03T04:40:03;103027.91;;;4.63;100.00
69153;BME280;56261;51.580;4.578;2023-05-03T04:42:35;103020.75;;;4.65;100.00
69153;BME280;56261;51.580;4.578;2023-05-03T04:45:01;103025.72;;;4.71;100.00
69153;BME280;56261;51.580;4.578;2023-05-03T04:47:28;103025.25;;;4.63;100.00
69153;BME280;56261;51.580;4.578;2023-05-03T04:49:53;103028.84;;;4.62;100.00
69153;BME280;56261;51.580;4.578;2023-05-03T04:52:19;103021.34;;;4.70;100.00
69153;BME280;56261;51.580;4.578;2023-05-03T04:54:44;103014.59;;;4.47;100.00
69153;BME280;56261;51.580;4.578;2023-05-03T04:57:10;103019.34;;;4.58;100.00
69153;BME280;56261;51.580;4.578;2023-05-03T04:59:35;103018.03;;;4.67;100.00
69153;BME280;56261;51.580;4.578;2023-05-03T05:02:01;103014.13;;;4.91;100.00
69153;BME280;56261;51.580;4.578;2023-05-03T05:04:26;103016.38;;;4.82;100.00
69153;BME280;56261;51.580;4.578;2023-05-03T05:06:52;103024.72;;;4.91;100.00
69153;BME280;56261;51.580;4.578;2023-05-03T05:09:26;103028.66;;;5.00;100.00
69153;BME280;56261;51.580;4.578;2023-05-03T05:11:53;103013.72;;;4.99;100.00
69153;BME280;56261;51.580;4.578;2023-05-03T05:14:18;103035.66;;;5.01;100.00
69153;BME280;56261;51.580;4.578;2023-05-03T05:16:44;103027.97;;;4.96;100.00
69153;BME280;56261;51.580;4.578;2023-05-03T05:19:11;103034.34;;;5.10;100.00
69153;BME280;56261;51.580;4.578;2023-05-03T05:21:36;103037.13;;;5.07;100.00
69153;BME280;56261;51.580;4.578;2023-05-03T05:24:02;103042.34;;;5.08;100.00
69153;BME280;56261;51.580;4.578;2023-05-03T05:26:28;103041.38;;;5.27;100.00
69153;BME280;56261;51.580;4.578;2023-05-03T05:28:53;103038.06;;;5.23;100.00
69153;BME280;56261;51.580;4.578;2023-05-03T05:31:18;103040.78;;;5.55;100.00
69153;BME280;56261;51.580;4.578;2023-05-03T05:33:44;103041.91;;;5.67;100.00
69153;BME280;56261;51.580;4.578;2023-05-03T05:36:09;103040.47;;;5.61;100.00
69153;BME280;56261;51.580;4.578;2023-05-03T05:38:35;103043.09;;;5.61;100.00
69153;BME280;56261;51.580;4.578;2023-05-03T05:41:01;103044.03;;;5.60;100.00
69153;BME280;56261;51.580;4.578;2023-05-03T05:43:26;103037.63;;;5.64;100.00
69153;BME280;56261;51.580;4.578;2023-05-03T05:45:51;103038.53;;;5.80;100.00
69153;BME280;56261;51.580;4.578;2023-05-03T05:48:17;103043.91;;;5.79;100.00
69153;BME280;56261;51.580;4.578;2023-05-03T05:50:42;103038.78;;;5.92;100.00
69153;BME280;56261;51.580;4.578;2023-05-03T05:53:07;103039.66;;;6.08;100.00
69153;BME280;56261;51.580;4.578;2023-05-03T05:55:34;103043.59;;;6.17;100.00
69153;BME280;56261;51.580;4.578;2023-05-03T05:57:59;103031.59;;;6.41;100.00
69153;BME280;56261;51.580;4.578;2023-05-03T06:00:25;103047.13;;;6.63;100.00
69153;BME280;56261;51.580;4.578;2023-05-03T06:02:50;103043.84;;;6.74;100.00
69153;BME280;56261;51.580;4.578;2023-05-03T06:05:16;103029.91;;;6.71;100.00
69153;BME280;56261;51.580;4.578;2023-05-03T06:07:41;103049.47;;;6.98;100.00
69153;BME280;56261;51.580;4.578;2023-05-03T06:10:07;103034.09;;;7.62;100.00
69153;BME280;56261;51.580;4.578;2023-05-03T06:12:33;103042.63;;;8.09;100.00
69153;BME280;56261;51.580;4.578;2023-05-03T06:14:58;103040.88;;;7.95;100.00
69153;BME280;56261;51.580;4.578;2023-05-03T06:17:24;103029.13;;;8.39;100.00
69153;BME280;56261;51.580;4.578;2023-05-03T06:19:51;103030.38;;;8.48;100.00
69153;BME280;56261;51.580;4.578;2023-05-03T06:22:16;103032.41;;;8.57;100.00
69153;BME280;56261;51.580;4.578;2023-05-03T06:24:42;103028.75;;;8.85;100.00
69153;BME280;56261;51.580;4.578;2023-05-03T06:27:07;103023.75;;;9.06;100.00
69153;BME280;56261;51.580;4.578;2023-05-03T06:29:33;103033.03;;;9.39;100.00
69153;BME280;56261;51.580;4.578;2023-05-03T06:31:58;103034.34;;;9.83;100.00
69153;BME280;56261;51.580;4.578;2023-05-03T06:34:24;103026.81;;;9.64;100.00
69153;BME280;56261;51.580;4.578;2023-05-03T06:36:51;103026.41;;;9.57;100.00
69153;BME280;56261;51.580;4.578;2023-05-03T06:39:16;103033.84;;;9.78;100.00
69153;BME280;56261;51.580;4.578;2023-05-03T06:41:42;103039.88;;;10.54;100.00
69153;BME280;56261;51.580;4.578;2023-05-03T06:44:08;103028.69;;;10.84;100.00
69153;BME280;56261;51.580;4.578;2023-05-03T06:46:34;103029.56;;;10.12;100.00
69153;BME280;56261;51.580;4.578;2023-05-03T06:48:59;103021.06;;;10.07;100.00
69153;BME280;56261;51.580;4.578;2023-05-03T06:51:26;103019.19;;;10.21;100.00
69153;BME280;56261;51.580;4.578;2023-05-03T06:53:54;103027.59;;;10.27;100.00
69153;BME280;56261;51.580;4.578;2023-05-03T06:56:24;103014.22;;;10.40;100.00
69153;BME280;56261;51.580;4.578;2023-05-03T06:58:50;103011.97;;;10.58;100.00
69153;BME280;56261;51.580;4.578;2023-05-03T07:01:15;103011.09;;;10.93;100.00
69153;BME280;56261;51.580;4.578;2023-05-03T07:03:43;103018.09;;;10.36;100.00
69153;BME280;56261;51.580;4.578;2023-05-03T07:06:08;103013.75;;;10.46;100.00
69153;BME280;56261;51.580;4.578;2023-05-03T07:08:34;103011.41;;;10.66;100.00
69153;BME280;56261;51.580;4.578;2023-05-03T07:10:59;103008.09;;;11.42;100.00
69153;BME280;56261;51.580;4.578;2023-05-03T07:13:24;103011.38;;;11.69;100.00
69153;BME280;56261;51.580;4.578;2023-05-03T07:15:50;103003.59;;;12.32;100.00
69153;BME280;56261;51.580;4.578;2023-05-03T07:18:15;102998.88;;;11.69;100.00
69153;BME280;56261;51.580;4.578;2023-05-03T07:20:41;103004.94;;;11.60;100.00
69153;BME280;56261;51.580;4.578;2023-05-03T07:23:06;103013.66;;;10.83;100.00
69153;BME280;56261;51.580;4.578;2023-05-03T07:25:32;102998.38;;;10.85;100.00
69153;BME280;56261;51.580;4.578;2023-05-03T07:27:58;103006.28;;;11.88;100.00
69153;BME280;56261;51.580;4.578;2023-05-03T07:30:23;103004.50;;;12.10;100.00
69153;BME280;56261;51.580;4.578;2023-05-03T07:32:49;102996.47;;;11.32;100.00
69153;BME280;56261;51.580;4.578;2023-05-03T07:35:15;102994.94;;;11.96;100.00
69153;BME280;56261;51.580;4.578;2023-05-03T07:37:41;102987.00;;;11.28;100.00
69153;BME280;56261;51.580;4.578;2023-05-03T07:40:08;102986.97;;;11.62;100.00
69153;BME280;56261;51.580;4.578;2023-05-03T07:42:36;102979.13;;;12.04;100.00
69153;BME280;56261;51.580;4.578;2023-05-03T07:45:02;102979.13;;;12.04;100.00
69153;BME280;56261;51.580;4.578;2023-05-03T07:47:27;102966.34;;;12.08;100.00
69153;BME280;56261;51.580;4.578;2023-05-03T07:49:53;102978.91;;;11.96;100.00
69153;BME280;56261;51.580;4.578;2023-05-03T07:52:18;102960.59;;;12.23;100.00
69153;BME280;56261;51.580;4.578;2023-05-03T07:54:44;102953.91;;;13.02;100.00
69153;BME280;56261;51.580;4.578;2023-05-03T07:57:13;102965.31;;;12.73;100.00
69153;BME280;56261;51.580;4.578;2023-05-03T07:59:39;102963.88;;;12.16;100.00
69153;BME280;56261;51.580;4.578;2023-05-03T08:02:05;102955.13;;;12.14;100.00
69153;BME280;56261;51.580;4.578;2023-05-03T08:04:30;102954.31;;;12.34;100.00
69153;BME280;56261;51.580;4.578;2023-05-03T08:06:59;102959.34;;;11.95;100.00
69153;BME280;56261;51.580;4.578;2023-05-03T08:09:26;102965.09;;;13.17;100.00
69153;BME280;56261;51.580;4.578;2023-05-03T08:11:53;102958.91;;;13.16;100.00
69153;BME280;56261;51.580;4.578;2023-05-03T08:14:19;102970.53;;;12.33;100.00
69153;BME280;56261;51.580;4.578;2023-05-03T08:16:44;102964.28;;;13.26;100.00
69153;BME280;56261;51.580;4.578;2023-05-03T08:19:10;102964.47;;;13.03;100.00
69153;BME280;56261;51.580;4.578;2023-05-03T08:21:36;102970.16;;;13.31;100.00
69153;BME280;56261;51.580;4.578;2023-05-03T08:24:02;102967.97;;;12.73;100.00
69153;BME280;56261;51.580;4.578;2023-05-03T08:26:32;102974.66;;;12.25;100.00
69153;BME280;56261;51.580;4.578;2023-05-03T08:28:58;102978.09;;;12.49;100.00
69153;BME280;56261;51.580;4.578;2023-05-03T08:31:23;102975.47;;;12.05;100.00
69153;BME280;56261;51.580;4.578;2023-05-03T08:33:49;102967.00;;;12.95;100.00
69153;BME280;56261;51.580;4.578;2023-05-03T08:36:16;102968.75;;;13.97;100.00
69153;BME280;56261;51.580;4.578;2023-05-03T08:38:41;102967.47;;;13.91;100.00
69153;BME280;56261;51.580;4.578;2023-05-03T08:41:29;102960.13;;;14.51;100.00
69153;BME280;56261;51.580;4.578;2023-05-03T08:43:55;102966.63;;;14.00;100.00
69153;BME280;56261;51.580;4.578;2023-05-03T08:46:21;102963.38;;;14.26;100.00
69153;BME280;56261;51.580;4.578;2023-05-03T08:48:48;102963.50;;;13.85;100.00
69153;BME280;56261;51.580;4.578;2023-05-03T08:51:16;102966.47;;;13.92;100.00
69153;BME280;56261;51.580;4.578;2023-05-03T08:53:42;102947.97;;;14.47;100.00
69153;BME280;56261;51.580;4.578;2023-05-03T08:56:09;102952.66;;;13.87;100.00
69153;BME280;56261;51.580;4.578;2023-05-03T08:58:35;102951.81;;;14.16;100.00
69153;BME280;56261;51.580;4.578;2023-05-03T09:01:06;102954.44;;;14.84;100.00
69153;BME280;56261;51.580;4.578;2023-05-03T09:03:32;102947.91;;;14.96;100.00
69153;BME280;56261;51.580;4.578;2023-05-03T09:05:58;102949.44;;;13.43;100.00
69153;BME280;56261;51.580;4.578;2023-05-03T09:08:29;102952.94;;;14.03;100.00
69153;BME280;56261;51.580;4.578;2023-05-03T09:10:56;102941.34;;;14.51;100.00
69153;BME280;56261;51.580;4.578;2023-05-03T09:13:29;102943.69;;;15.21;100.00
69153;BME280;56261;51.580;4.578;2023-05-03T09:15:56;102941.91;;;15.12;100.00
69153;BME280;56261;51.580;4.578;2023-05-03T09:18:22;102935.22;;;15.16;100.00
69153;BME280;56261;51.580;4.578;2023-05-03T09:20:48;102939.78;;;15.33;98.96
69153;BME280;56261;51.580;4.578;2023-05-03T09:25:53;102945.13;;;15.43;100.00
69153;BME280;56261;51.580;4.578;2023-05-03T09:28:19;102949.16;;;15.57;100.00
69153;BME280;56261;51.580;4.578;2023-05-03T09:30:45;102943.22;;;15.53;99.74
69153;BME280;56261;51.580;4.578;2023-05-03T09:33:12;102959.16;;;15.65;97.39
69153;BME280;56261;51.580;4.578;2023-05-03T09:36:01;102956.66;;;15.53;96.34
69153;BME280;56261;51.580;4.578;2023-05-03T09:38:29;102962.78;;;15.83;96.82
69153;BME280;56261;51.580;4.578;2023-05-03T09:40:55;102958.69;;;14.77;100.00
69153;BME280;56261;51.580;4.578;2023-05-03T09:43:20;102971.75;;;15.74;99.51
69153;BME280;56261;51.580;4.578;2023-05-03T09:45:46;102965.50;;;15.46;98.19
69153;BME280;56261;51.580;4.578;2023-05-03T09:48:12;102961.63;;;15.86;95.03
69153;BME280;56261;51.580;4.578;2023-05-03T09:50:37;102950.59;;;16.33;96.62
69153;BME280;56261;51.580;4.578;2023-05-03T09:53:05;102958.66;;;16.51;96.12
69153;BME280;56261;51.580;4.578;2023-05-03T09:55:37;102956.75;;;15.16;94.87
69153;BME280;56261;51.580;4.578;2023-05-03T09:58:04;102952.16;;;16.17;100.00
69153;BME280;56261;51.580;4.578;2023-05-03T10:00:39;102938.41;;;16.47;93.87
69153;BME280;56261;51.580;4.578;2023-05-03T10:03:10;102943.53;;;15.78;98.32
69153;BME280;56261;51.580;4.578;2023-05-03T10:05:43;102949.47;;;15.82;96.60
69153;BME280;56261;51.580;4.578;2023-05-03T10:08:13;102945.53;;;16.30;94.15
69153;BME280;56261;51.580;4.578;2023-05-03T10:10:43;102941.72;;;15.69;95.59
69153;BME280;56261;51.580;4.578;2023-05-03T10:13:10;102938.84;;;16.16;94.24
69153;BME280;56261;51.580;4.578;2023-05-03T10:15:37;102946.06;;;15.97;93.52
69153;BME280;56261;51.580;4.578;2023-05-03T10:18:06;102944.63;;;15.57;97.76
69153;BME280;56261;51.580;4.578;2023-05-03T10:20:38;102946.13;;;15.14;94.88
69153;BME280;56261;51.580;4.578;2023-05-03T10:25:30;102943.63;;;15.59;93.97
69153;BME280;56261;51.580;4.578;2023-05-03T10:28:06;102940.25;;;15.56;94.79
69153;BME280;56261;51.580;4.578;2023-05-03T10:30:37;102932.53;;;15.44;97.70
69153;BME280;56261;51.580;4.578;2023-05-03T10:35:41;102921.16;;;15.77;96.26
69153;BME280;56261;51.580;4.578;2023-05-03T10:38:14;102918.03;;;15.54;94.04
69153;BME280;56261;51.580;4.578;2023-05-03T10:40:41;102923.00;;;15.77;97.19
69153;BME280;56261;51.580;4.578;2023-05-03T10:46:00;102924.09;;;14.64;100.00
69153;BME280;56261;51.580;4.578;2023-05-03T10:48:27;102925.78;;;15.57;97.67
69153;BME280;56261;51.580;4.578;2023-05-03T10:50:54;102920.59;;;15.01;100.00
69153;BME280;56261;51.580;4.578;2023-05-03T10:58:37;102916.69;;;16.22;99.20
69153;BME280;56261;51.580;4.578;2023-05-03T11:01:08;102919.59;;;15.29;93.29
69153;BME280;56261;51.580;4.578;2023-05-03T11:06:00;102899.75;;;16.12;95.85
69153;BME280;56261;51.580;4.578;2023-05-03T11:08:27;102898.09;;;15.75;93.28
69153;BME280;56261;51.580;4.578;2023-05-03T11:10:59;102899.50;;;15.79;94.49
69153;BME280;56261;51.580;4.578;2023-05-03T11:13:25;102889.56;;;14.69;100.00
69153;BME280;56261;51.580;4.578;2023-05-03T11:15:53;102889.19;;;15.74;97.86
69153;BME280;56261;51.580;4.578;2023-05-03T11:18:18;102888.16;;;16.11;96.18
69153;BME280;56261;51.580;4.578;2023-05-03T11:20:44;102887.63;;;16.08;95.87
69153;BME280;56261;51.580;4.578;2023-05-03T11:23:10;102876.81;;;16.52;97.21
69153;BME280;56261;51.580;4.578;2023-05-03T11:25:36;102878.50;;;16.27;92.33
69153;BME280;56261;51.580;4.578;2023-05-03T11:28:02;102878.47;;;15.83;95.47
69153;BME280;56261;51.580;4.578;2023-05-03T11:30:28;102871.50;;;15.90;97.59
69153;BME280;56261;51.580;4.578;2023-05-03T11:32:54;102876.81;;;15.82;97.72
69153;BME280;56261;51.580;4.578;2023-05-03T11:35:20;102864.84;;;16.20;92.26
69153;BME280;56261;51.580;4.578;2023-05-03T11:37:48;102863.63;;;16.40;94.39
69153;BME280;56261;51.580;4.578;2023-05-03T11:40:15;102847.78;;;16.37;94.84
69153;BME280;56261;51.580;4.578;2023-05-03T11:42:57;102859.53;;;16.54;96.69
69153;BME280;56261;51.580;4.578;2023-05-03T11:45:24;102852.00;;;16.66;95.88
69153;BME280;56261;51.580;4.578;2023-05-03T11:47:51;102848.31;;;16.15;96.57
69153;BME280;56261;51.580;4.578;2023-05-03T11:50:17;102838.50;;;15.70;98.25
69153;BME280;56261;51.580;4.578;2023-05-03T11:52:44;102833.41;;;16.29;97.64
69153;BME280;56261;51.580;4.578;2023-05-03T11:55:10;102820.34;;;16.08;100.00
69153;BME280;56261;51.580;4.578;2023-05-03T11:57:36;102824.00;;;16.07;97.56
69153;BME280;56261;51.580;4.578;2023-05-03T12:00:18;102829.53;;;16.23;97.21
69153;BME280;56261;51.580;4.578;2023-05-03T12:02:47;102820.41;;;15.98;94.92
69153;BME280;56261;51.580;4.578;2023-05-03T12:05:13;102827.06;;;16.38;94.65
69153;BME280;56261;51.580;4.578;2023-05-03T12:07:38;102817.81;;;15.88;99.93
69153;BME280;56261;51.580;4.578;2023-05-03T12:10:29;102822.53;;;16.38;100.00
69153;BME280;56261;51.580;4.578;2023-05-03T12:12:58;102810.41;;;17.11;100.00
69153;BME280;56261;51.580;4.578;2023-05-03T12:15:30;102801.09;;;16.55;99.18
69153;BME280;56261;51.580;4.578;2023-05-03T12:17:58;102795.69;;;16.89;95.65
69153;BME280;56261;51.580;4.578;2023-05-03T12:20:27;102807.94;;;16.15;97.39
69153;BME280;56261;51.580;4.578;2023-05-03T12:22:59;102800.00;;;16.39;99.34
69153;BME280;56261;51.580;4.578;2023-05-03T12:25:25;102798.69;;;16.52;100.00
69153;BME280;56261;51.580;4.578;2023-05-03T12:27:52;102794.97;;;16.79;99.34
69153;BME280;56261;51.580;4.578;2023-05-03T12:30:18;102785.69;;;17.24;96.77
69153;BME280;56261;51.580;4.578;2023-05-03T12:32:43;102786.34;;;17.18;100.00
69153;BME280;56261;51.580;4.578;2023-05-03T12:35:09;102787.63;;;16.55;97.57
69153;BME280;56261;51.580;4.578;2023-05-03T12:37:34;102787.25;;;16.50;100.00
69153;BME280;56261;51.580;4.578;2023-05-03T12:40:00;102777.16;;;16.52;99.57
69153;BME280;56261;51.580;4.578;2023-05-03T12:42:26;102770.72;;;16.45;99.77
69153;BME280;56261;51.580;4.578;2023-05-03T12:44:55;102765.75;;;15.97;95.95
69153;BME280;56261;51.580;4.578;2023-05-03T12:47:21;102774.13;;;16.21;100.00
69153;BME280;56261;51.580;4.578;2023-05-03T12:49:47;102760.78;;;16.45;97.94
69153;BME280;56261;51.580;4.578;2023-05-03T12:52:12;102757.31;;;16.53;100.00
69153;BME280;56261;51.580;4.578;2023-05-03T12:54:38;102758.50;;;16.24;98.82
69153;BME280;56261;51.580;4.578;2023-05-03T12:57:03;102762.72;;;15.74;99.88
69153;BME280;56261;51.580;4.578;2023-05-03T12:59:29;102752.06;;;15.91;100.00
69153;BME280;56261;51.580;4.578;2023-05-03T13:01:55;102745.84;;;16.16;100.00
69153;BME280;56261;51.580;4.578;2023-05-03T13:04:21;102751.94;;;16.27;100.00
69153;BME280;56261;51.580;4.578;2023-05-03T13:06:47;102750.22;;;16.52;100.00
69153;BME280;56261;51.580;4.578;2023-05-03T13:09:14;102743.00;;;16.52;100.00
69153;BME280;56261;51.580;4.578;2023-05-03T13:11:43;102747.44;;;16.78;98.55